createdAt,value
2022-08-18T00:01:50.319Z,13.68
2022-08-18T00:04:35.598Z,14.05
2022-08-18T00:07:07.647Z,14.02
2022-08-18T00:09:37.154Z,14.80
2022-08-18T00:12:09.756Z,13.80
2022-08-18T00:14:36.980Z,14.43
2022-08-18T00:17:04.477Z,14.90
2022-08-18T00:19:46.333Z,14.25
2022-08-18T00:22:16.772Z,14.20
2022-08-18T00:24:48.653Z,14.65
2022-08-18T00:27:23.617Z,14.52
2022-08-18T00:29:53.110Z,14.25
2022-08-18T00:32:24.036Z,13.67
2022-08-18T00:34:53.196Z,14.48
2022-08-18T00:37:21.830Z,14.63
2022-08-18T00:39:52.592Z,14.52
2022-08-18T00:42:27.664Z,15.20
2022-08-18T00:45:01.657Z,16.00
2022-08-18T00:47:41.700Z,14.82
2022-08-18T00:50:22.073Z,15.98
2022-08-18T00:53:20.022Z,14.13
2022-08-18T00:55:54.394Z,15.90
2022-08-18T00:58:47.132Z,14.85
2022-08-18T01:01:17.414Z,15.00
2022-08-18T01:03:53.221Z,15.80
2022-08-18T01:06:28.623Z,15.57
2022-08-18T01:08:56.275Z,14.77
2022-08-18T01:11:23.439Z,15.27
2022-08-18T01:13:51.320Z,16.75
2022-08-18T01:16:37.841Z,15.13
2022-08-18T01:19:23.997Z,14.55
2022-08-18T01:21:58.099Z,14.90
2022-08-18T01:24:47.596Z,15.93
2022-08-18T01:27:18.933Z,15.68
2022-08-18T01:29:48.737Z,15.95
2022-08-18T01:32:20.399Z,15.15
2022-08-18T01:34:49.358Z,16.77
2022-08-18T01:37:20.198Z,15.38
2022-08-18T01:41:22.676Z,14.52
2022-08-18T01:42:36.650Z,15.13
2022-08-18T01:45:07.681Z,15.98
2022-08-18T01:47:47.619Z,16.27
2022-08-18T01:50:16.657Z,16.58
2022-08-18T01:52:44.006Z,14.65
2022-08-18T01:55:12.426Z,15.48
2022-08-18T01:57:45.223Z,16.38
2022-08-18T02:00:14.827Z,17.20
2022-08-18T02:02:42.333Z,18.70
2022-08-18T02:05:21.291Z,16.05
2022-08-18T02:07:48.435Z,16.65
2022-08-18T02:10:21.277Z,17.67
2022-08-18T02:12:48.444Z,15.95
2022-08-18T02:15:15.649Z,16.85
2022-08-18T02:17:45.285Z,17.65
2022-08-18T02:20:16.045Z,17.08
2022-08-18T02:22:43.511Z,19.40
2022-08-18T02:25:12.119Z,18.38
2022-08-18T02:27:39.484Z,19.20
2022-08-18T02:30:10.100Z,19.70
2022-08-18T02:32:37.577Z,20.65
2022-08-18T02:35:08.310Z,21.02
2022-08-18T02:37:42.126Z,21.10
2022-08-18T02:40:11.402Z,19.63
2022-08-18T02:42:43.072Z,18.35
2022-08-18T02:45:10.956Z,20.38
2022-08-18T02:47:38.077Z,20.42
2022-08-18T02:50:06.393Z,20.00
2022-08-18T02:52:35.249Z,19.17
2022-08-18T02:55:02.547Z,19.20
2022-08-18T02:57:30.218Z,18.70
2022-08-18T02:59:57.796Z,19.90
2022-08-18T03:02:27.170Z,21.65
2022-08-18T03:04:54.297Z,20.02
2022-08-18T03:07:21.486Z,20.52
2022-08-18T03:09:48.692Z,20.38
2022-08-18T03:12:15.919Z,20.17
2022-08-18T03:14:43.806Z,19.20
2022-08-18T03:17:10.937Z,20.10
2022-08-18T03:19:38.418Z,20.45
2022-08-18T03:22:18.742Z,20.63
2022-08-18T03:24:56.219Z,19.40
2022-08-18T03:27:23.315Z,20.63
2022-08-18T03:29:51.461Z,22.27
2022-08-18T03:32:19.005Z,22.67
2022-08-18T03:34:46.276Z,22.38
2022-08-18T03:37:16.043Z,21.85
2022-08-18T03:39:43.362Z,21.27
2022-08-18T03:42:10.960Z,24.15
2022-08-18T03:44:38.139Z,23.90
2022-08-18T03:47:10.157Z,24.90
2022-08-18T03:49:38.005Z,24.10
2022-08-18T03:52:09.682Z,23.30
2022-08-18T03:54:39.103Z,22.95
2022-08-18T03:57:09.641Z,22.25
2022-08-18T03:59:37.638Z,24.67
2022-08-18T04:02:05.870Z,25.45
2022-08-18T04:04:33.922Z,23.85
2022-08-18T04:07:11.485Z,26.30
2022-08-18T04:09:39.297Z,26.90
2022-08-18T04:12:16.456Z,25.23
2022-08-18T04:14:48.583Z,25.85
2022-08-18T04:17:24.504Z,24.73
2022-08-18T04:19:55.916Z,24.67
2022-08-18T04:22:25.126Z,23.63
2022-08-18T04:24:53.281Z,24.00
2022-08-18T04:27:22.008Z,23.52
2022-08-18T04:29:49.705Z,23.58
2022-08-18T04:32:17.875Z,25.77
2022-08-18T04:34:45.161Z,24.40
2022-08-18T04:37:12.417Z,22.25
2022-08-18T04:39:39.711Z,21.98
2022-08-18T04:42:07.038Z,20.88
2022-08-18T04:44:38.033Z,24.25
2022-08-18T04:47:07.145Z,22.77
2022-08-18T04:49:34.257Z,22.35
2022-08-18T04:52:38.244Z,24.90
2022-08-18T04:55:09.945Z,23.73
2022-08-18T04:57:38.248Z,24.98
2022-08-18T05:00:08.513Z,26.95
2022-08-18T05:02:35.958Z,29.45
2022-08-18T05:05:04.504Z,26.90
2022-08-18T05:07:32.640Z,28.55
2022-08-18T05:09:59.933Z,26.98
2022-08-18T05:12:27.131Z,24.92
2022-08-18T05:14:57.250Z,24.73
2022-08-18T05:17:30.543Z,25.60
2022-08-18T05:20:01.403Z,25.50
2022-08-18T05:22:31.349Z,26.02
2022-08-18T05:25:00.332Z,26.13
2022-08-18T05:27:35.461Z,26.27
2022-08-18T05:30:03.985Z,24.25
2022-08-18T05:32:47.859Z,24.65
2022-08-18T05:35:25.445Z,24.13
2022-08-18T05:38:15.844Z,23.52
2022-08-18T05:40:44.325Z,23.48
2022-08-18T05:43:11.608Z,23.95
2022-08-18T05:45:41.103Z,23.40
2022-08-18T05:48:08.402Z,23.35
2022-08-18T05:50:38.079Z,23.73
2022-08-18T05:53:13.923Z,25.52
2022-08-18T05:56:06.984Z,22.52
2022-08-18T05:58:42.333Z,22.45
2022-08-18T06:01:23.021Z,23.30
2022-08-18T06:04:06.269Z,22.10
2022-08-18T06:06:36.776Z,23.23
2022-08-18T06:09:24.823Z,23.95
2022-08-18T06:12:09.927Z,22.80
2022-08-18T06:14:38.948Z,22.92
2022-08-18T06:17:24.397Z,21.45
2022-08-18T06:20:02.507Z,21.02
2022-08-18T06:22:52.633Z,21.52
2022-08-18T06:25:44.430Z,19.77
2022-08-18T06:28:17.202Z,21.25
2022-08-18T06:31:02.926Z,20.75
2022-08-18T06:33:39.728Z,18.85
2022-08-18T06:36:25.223Z,20.48
2022-08-18T06:39:29.267Z,19.77
2022-08-18T06:41:56.438Z,18.52
2022-08-18T06:44:39.273Z,18.60
2022-08-18T06:47:28.694Z,20.90
2022-08-18T06:50:00.770Z,19.70
2022-08-18T06:52:30.235Z,20.25
2022-08-18T06:55:00.185Z,19.05
2022-08-18T06:57:30.394Z,19.30
2022-08-18T07:02:50.086Z,19.45
2022-08-18T07:05:31.021Z,17.63
2022-08-18T07:08:18.786Z,18.67
2022-08-18T07:10:49.445Z,17.45
2022-08-18T07:13:19.715Z,19.73
2022-08-18T07:15:48.727Z,18.00
2022-08-18T07:18:24.701Z,17.35
2022-08-18T07:21:02.177Z,17.73
2022-08-18T07:23:34.732Z,17.38
2022-08-18T07:26:08.954Z,15.88
2022-08-18T07:28:44.529Z,15.60
2022-08-18T07:31:19.828Z,15.05
2022-08-18T07:33:56.144Z,15.18
2022-08-18T07:36:27.390Z,15.48
2022-08-18T07:39:03.068Z,16.35
2022-08-18T07:41:41.961Z,15.13
2022-08-18T07:44:16.700Z,14.68
2022-08-18T07:47:05.418Z,14.13
2022-08-18T07:49:36.051Z,13.60
2022-08-18T07:52:36.217Z,13.05
2022-08-18T07:55:15.843Z,11.93
2022-08-18T07:57:51.149Z,12.30
2022-08-18T08:00:58.139Z,11.32
2022-08-18T08:03:51.978Z,11.13
2022-08-18T08:06:24.804Z,11.63
2022-08-18T08:09:00.130Z,10.75
2022-08-18T08:11:44.715Z,11.05
2022-08-18T08:14:32.882Z,10.48
2022-08-18T08:17:06.819Z,10.25
2022-08-18T08:20:00.474Z,10.23
2022-08-18T08:22:53.853Z,9.40
2022-08-18T08:28:36.888Z,8.27
2022-08-18T08:34:14.431Z,8.17
2022-08-18T08:36:45.619Z,7.53
2022-08-18T08:39:41.726Z,7.40
2022-08-18T08:42:30.736Z,7.15
2022-08-18T08:45:06.915Z,6.68
2022-08-18T08:48:06.839Z,6.10
2022-08-18T08:50:44.862Z,6.20
2022-08-18T08:53:11.890Z,6.03
2022-08-18T08:55:47.279Z,6.47
2022-08-18T08:58:26.838Z,5.90
2022-08-18T09:00:56.578Z,6.15
2022-08-18T09:03:41.828Z,6.15
2022-08-18T09:06:17.758Z,5.72
2022-08-18T09:09:05.393Z,5.30
2022-08-18T09:11:54.083Z,5.70
2022-08-18T09:14:32.459Z,6.18
2022-08-18T09:17:11.526Z,6.28
2022-08-18T09:19:47.658Z,6.53
2022-08-18T09:22:40.741Z,6.82
2022-08-18T09:25:30.278Z,6.55
2022-08-18T09:28:16.648Z,7.38
2022-08-18T09:31:08.688Z,6.90
2022-08-18T09:33:40.703Z,7.05
2022-08-18T09:36:21.469Z,7.38
2022-08-18T09:39:20.487Z,6.57
2022-08-18T09:42:03.386Z,6.57
2022-08-18T09:44:49.269Z,6.57
2022-08-18T09:47:22.333Z,6.78
2022-08-18T09:49:56.172Z,7.07
2022-08-18T09:52:24.497Z,6.78
2022-08-18T09:54:59.466Z,6.97
2022-08-18T09:57:27.375Z,6.32
2022-08-18T09:59:59.271Z,5.88
2022-08-18T10:02:29.614Z,6.00
2022-08-18T10:05:15.498Z,6.22
2022-08-18T10:07:45.376Z,6.30
2022-08-18T10:13:32.618Z,6.03
2022-08-18T10:16:21.460Z,5.50
2022-08-18T10:19:18.601Z,6.40
2022-08-18T10:22:07.317Z,5.70
2022-08-18T10:24:56.480Z,6.10
2022-08-18T10:27:58.121Z,5.72
2022-08-18T10:30:34.619Z,6.15
2022-08-18T10:33:18.009Z,6.05
2022-08-18T10:35:59.103Z,5.63
2022-08-18T10:38:37.201Z,6.00
2022-08-18T10:41:21.468Z,5.57
2022-08-18T10:43:57.265Z,6.20
2022-08-18T10:46:32.683Z,5.60
2022-08-18T10:49:15.080Z,6.00
2022-08-18T10:52:08.610Z,6.57
2022-08-18T10:54:51.192Z,6.70
2022-08-18T10:58:14.712Z,6.43
2022-08-18T11:01:01.179Z,6.28
2022-08-18T11:04:00.109Z,6.43
2022-08-18T11:06:47.644Z,6.55
2022-08-18T11:09:25.727Z,6.55
2022-08-18T11:12:01.571Z,5.90
2022-08-18T11:14:52.581Z,6.40
2022-08-18T11:18:10.533Z,6.50
2022-08-18T11:20:40.242Z,6.35
2022-08-18T11:23:17.239Z,6.10
2022-08-18T11:25:45.168Z,5.75
2022-08-18T11:31:10.990Z,6.65
2022-08-18T11:33:42.314Z,6.93
2022-08-18T11:36:09.992Z,7.00
2022-08-18T11:38:39.465Z,6.70
2022-08-18T11:41:24.506Z,6.10
2022-08-18T11:44:02.806Z,6.80
2022-08-18T11:46:41.043Z,6.93
2022-08-18T11:49:18.179Z,6.13
2022-08-18T11:52:03.529Z,6.32
2022-08-18T11:54:50.757Z,6.70
2022-08-18T12:01:01.620Z,6.50
2022-08-18T12:03:45.013Z,6.10
2022-08-18T12:06:20.317Z,6.05
2022-08-18T12:09:04.484Z,5.70
2022-08-18T12:11:36.587Z,6.25
2022-08-18T12:14:29.829Z,5.30
2022-08-18T12:17:01.441Z,5.68
2022-08-18T12:19:34.241Z,6.30
2022-08-18T12:22:10.992Z,6.20
2022-08-18T12:27:31.975Z,6.00
2022-08-18T12:30:03.636Z,6.38
2022-08-18T12:32:46.894Z,6.18
2022-08-18T12:35:22.202Z,5.97
2022-08-18T12:38:13.700Z,6.40
2022-08-18T12:40:37.441Z,6.10
2022-08-18T12:43:06.214Z,6.55
2022-08-18T12:45:37.951Z,6.07
2022-08-18T12:48:06.820Z,6.30
2022-08-18T12:53:29.483Z,6.03
2022-08-18T12:56:27.024Z,6.18
2022-08-18T12:58:55.600Z,5.83
2022-08-18T13:01:25.226Z,5.57
2022-08-18T13:04:12.238Z,6.10
2022-08-18T13:06:59.814Z,5.72
2022-08-18T13:09:34.739Z,5.72
2022-08-18T13:12:16.614Z,6.07
2022-08-18T13:14:45.457Z,5.50
2022-08-18T13:17:30.159Z,5.88
2022-08-18T13:22:40.529Z,5.75
2022-08-18T13:25:32.869Z,6.43
2022-08-18T13:28:01.760Z,5.80
2022-08-18T13:30:32.148Z,5.78
2022-08-18T13:33:05.464Z,6.03
2022-08-18T13:35:54.485Z,5.95
2022-08-18T13:38:27.213Z,6.00
2022-08-18T13:40:58.731Z,6.55
2022-08-18T13:43:36.008Z,6.13
2022-08-18T13:46:06.410Z,5.80
2022-08-18T13:48:36.302Z,6.18
2022-08-18T13:51:05.657Z,6.22
2022-08-18T13:53:50.484Z,6.65
2022-08-18T13:56:31.558Z,6.50
2022-08-18T13:58:59.268Z,6.53
2022-08-18T14:01:45.156Z,6.00
2022-08-18T14:04:20.253Z,6.53
2022-08-18T14:06:56.387Z,7.18
2022-08-18T14:09:35.760Z,5.75
2022-08-18T14:12:22.956Z,6.32
2022-08-18T14:14:55.693Z,6.20
2022-08-18T14:17:25.860Z,6.00
2022-08-18T14:20:15.323Z,6.38
2022-08-18T14:23:11.365Z,6.32
2022-08-18T14:25:57.348Z,6.90
2022-08-18T14:28:28.831Z,6.57
2022-08-18T14:30:58.265Z,6.82
2022-08-18T14:33:49.384Z,6.32
2022-08-18T14:36:18.110Z,6.40
2022-08-18T14:38:45.733Z,6.75
2022-08-18T14:41:14.918Z,5.95
2022-08-18T14:44:10.970Z,5.97
2022-08-18T14:46:32.881Z,6.57
2022-08-18T14:49:03.748Z,6.60
2022-08-18T14:51:33.456Z,6.57
2022-08-18T14:54:01.687Z,6.70
2022-08-18T14:56:33.265Z,6.72
2022-08-18T14:59:07.770Z,7.25
2022-08-18T15:01:42.427Z,6.70
2022-08-18T15:04:18.690Z,6.68
2022-08-18T15:06:55.878Z,7.72
2022-08-18T15:09:26.899Z,6.90
2022-08-18T15:11:56.399Z,6.88
2022-08-18T15:14:33.092Z,6.55
2022-08-18T15:17:11.904Z,7.07
2022-08-18T15:20:00.331Z,7.20
2022-08-18T15:22:47.863Z,6.72
2022-08-18T15:25:34.161Z,7.25
2022-08-18T15:28:01.732Z,7.10
2022-08-18T15:30:29.331Z,7.00
2022-08-18T15:32:59.165Z,6.82
2022-08-18T15:35:31.830Z,6.25
2022-08-18T15:38:00.875Z,6.35
2022-08-18T15:40:35.854Z,7.43
2022-08-18T15:43:09.987Z,6.50
2022-08-18T15:45:43.509Z,6.40
2022-08-18T15:48:25.134Z,6.63
2022-08-18T15:50:52.535Z,7.03
2022-08-18T15:53:23.635Z,6.30
2022-08-18T15:55:50.969Z,6.43
2022-08-18T15:58:22.296Z,6.20
2022-08-18T16:00:50.552Z,6.32
2022-08-18T16:03:18.324Z,6.93
2022-08-18T16:05:54.218Z,6.65
2022-08-18T16:08:23.733Z,5.97
2022-08-18T16:10:51.428Z,6.32
2022-08-18T16:13:19.502Z,5.80
2022-08-18T16:15:48.430Z,6.70
2022-08-18T16:18:17.445Z,6.40
2022-08-18T16:20:45.431Z,6.53
2022-08-18T16:23:13.895Z,6.50
2022-08-18T16:25:43.302Z,7.30
2022-08-18T16:28:13.511Z,6.53
2022-08-18T16:30:41.571Z,6.88
2022-08-18T16:33:08.972Z,6.80
2022-08-18T16:35:37.846Z,6.82
2022-08-18T16:38:09.282Z,6.97
2022-08-18T16:40:37.718Z,6.68
2022-08-18T16:43:06.092Z,7.55
2022-08-18T16:45:36.376Z,7.00
2022-08-18T16:48:04.021Z,6.55
2022-08-18T16:50:31.181Z,6.65
2022-08-18T16:52:58.583Z,6.88
2022-08-18T16:55:26.945Z,6.88
2022-08-18T16:58:15.608Z,6.10
2022-08-18T17:01:02.000Z,6.65
2022-08-18T17:03:47.929Z,6.55
2022-08-18T17:06:18.404Z,6.75
2022-08-18T17:08:47.070Z,6.53
2022-08-18T17:11:17.992Z,6.53
2022-08-18T17:13:46.971Z,7.10
2022-08-18T17:16:16.199Z,6.90
2022-08-18T17:18:43.708Z,7.00
2022-08-18T17:21:13.402Z,6.88
2022-08-18T17:23:41.746Z,7.10
2022-08-18T17:26:23.523Z,6.63
2022-08-18T17:28:54.765Z,7.18
2022-08-18T17:31:24.820Z,7.18
2022-08-18T17:33:57.495Z,6.72
2022-08-18T17:36:39.180Z,6.78
2022-08-18T17:39:13.359Z,6.53
2022-08-18T17:42:02.647Z,7.13
2022-08-18T17:44:31.517Z,6.47
2022-08-18T17:47:00.719Z,5.82
2022-08-18T17:50:26.295Z,6.90
2022-08-18T17:52:53.403Z,6.40
2022-08-18T17:55:28.879Z,6.18
2022-08-18T17:58:14.718Z,5.95
2022-08-18T18:00:42.226Z,6.40
2022-08-18T18:03:12.776Z,6.38
2022-08-18T18:05:47.726Z,6.20
2022-08-18T18:08:14.819Z,5.70
2022-08-18T18:11:05.069Z,6.07
2022-08-18T18:13:34.141Z,6.78
2022-08-18T18:16:20.546Z,6.18
2022-08-18T18:19:00.933Z,6.05
2022-08-18T18:21:58.902Z,6.55
2022-08-18T18:24:28.678Z,6.40
2022-08-18T18:26:55.782Z,5.60
2022-08-18T18:29:37.106Z,5.88
2022-08-18T18:32:27.439Z,6.45
2022-08-18T18:35:21.047Z,6.28
2022-08-18T18:37:54.334Z,6.57
2022-08-18T18:40:54.331Z,6.00
2022-08-18T18:43:43.772Z,5.80
2022-08-18T18:46:19.074Z,6.30
2022-08-18T18:49:19.253Z,6.20
2022-08-18T18:52:11.642Z,6.30
2022-08-18T18:54:39.774Z,7.25
2022-08-18T18:57:12.933Z,6.18
2022-08-18T19:00:23.321Z,6.60
2022-08-18T19:03:16.432Z,7.05
2022-08-18T19:06:06.130Z,5.93
2022-08-18T19:08:45.532Z,6.57
2022-08-18T19:11:48.266Z,6.32
2022-08-18T19:14:22.188Z,6.55
2022-08-18T19:17:13.782Z,5.85
2022-08-18T19:19:47.659Z,7.07
2022-08-18T19:22:30.282Z,6.88
2022-08-18T19:25:05.497Z,7.32
2022-08-18T19:27:40.112Z,6.75
2022-08-18T19:30:12.935Z,6.97
2022-08-18T19:32:49.878Z,6.78
2022-08-18T19:35:47.247Z,7.13
2022-08-18T19:38:44.767Z,7.07
2022-08-18T19:41:30.348Z,6.95
2022-08-18T19:44:23.222Z,6.97
2022-08-18T19:46:57.654Z,6.75
2022-08-18T19:49:31.539Z,7.35
2022-08-18T19:52:05.940Z,7.32
2022-08-18T19:55:27.674Z,7.35
2022-08-18T19:58:53.363Z,7.03
2022-08-18T20:01:38.576Z,7.32
2022-08-18T20:04:26.382Z,7.20
2022-08-18T20:07:18.227Z,7.22
2022-08-18T20:09:59.211Z,8.07
2022-08-18T20:12:39.984Z,7.15
2022-08-18T20:15:13.017Z,6.85
2022-08-18T20:17:58.315Z,7.78
2022-08-18T20:20:29.968Z,7.50
2022-08-18T20:22:59.884Z,7.65
2022-08-18T20:28:11.907Z,7.85
2022-08-18T20:30:38.970Z,8.20
2022-08-18T20:33:14.894Z,8.32
2022-08-18T20:36:14.309Z,8.15
2022-08-18T20:38:45.819Z,7.60
2022-08-18T20:41:43.549Z,7.38
2022-08-18T20:44:29.233Z,8.07
2022-08-18T20:47:34.635Z,7.75
2022-08-18T20:50:23.226Z,7.78
2022-08-18T20:53:24.336Z,7.88
2022-08-18T20:56:32.230Z,8.45
2022-08-18T20:59:20.315Z,8.20
2022-08-18T21:02:03.308Z,8.82
2022-08-18T21:04:41.210Z,8.18
2022-08-18T21:07:17.537Z,8.30
2022-08-18T21:10:12.900Z,8.52
2022-08-18T21:12:51.953Z,8.18
2022-08-18T21:15:21.267Z,8.33
2022-08-18T21:18:01.264Z,8.02
2022-08-18T21:20:29.969Z,8.57
2022-08-18T21:23:09.988Z,9.35
2022-08-18T21:28:08.420Z,9.75
2022-08-18T21:30:35.622Z,11.32
2022-08-18T21:33:21.009Z,11.10
2022-08-18T21:35:48.665Z,10.55
2022-08-18T21:38:27.040Z,11.75
2022-08-18T21:41:00.166Z,11.48
2022-08-18T21:43:49.370Z,11.32
2022-08-18T21:46:29.377Z,12.80
2022-08-18T21:49:00.515Z,11.25
2022-08-18T21:51:42.314Z,12.43
2022-08-18T21:54:10.000Z,11.45
2022-08-18T21:56:37.733Z,11.00
2022-08-18T21:59:20.973Z,11.38
2022-08-18T22:01:54.723Z,11.13
2022-08-18T22:04:24.689Z,11.07
2022-08-18T22:06:58.494Z,10.93
2022-08-18T22:09:47.365Z,10.57
2022-08-18T22:12:42.851Z,10.75
2022-08-18T22:15:36.197Z,11.70
2022-08-18T22:18:06.610Z,10.82
2022-08-18T22:20:52.198Z,11.00
2022-08-18T22:23:46.631Z,11.05
2022-08-18T22:26:16.844Z,10.80
2022-08-18T22:29:13.453Z,10.48
2022-08-18T22:31:46.617Z,11.00
2022-08-18T22:34:27.038Z,11.15
2022-08-18T22:37:14.647Z,10.73
2022-08-18T22:39:52.961Z,11.25
2022-08-18T22:42:22.696Z,10.93
2022-08-18T22:44:50.304Z,11.65
2022-08-18T22:47:18.055Z,11.43
2022-08-18T22:49:45.400Z,10.32
2022-08-18T22:52:32.933Z,12.27
2022-08-18T22:55:03.849Z,11.23
2022-08-18T22:57:38.857Z,11.50
2022-08-18T23:00:13.464Z,11.07
2022-08-18T23:02:41.005Z,12.35
2022-08-18T23:05:08.457Z,11.70
2022-08-18T23:07:35.675Z,11.27
2022-08-18T23:10:03.178Z,11.52
2022-08-18T23:12:35.503Z,12.18
2022-08-18T23:15:09.820Z,11.70
2022-08-18T23:17:37.664Z,12.05
2022-08-18T23:20:09.379Z,11.85
2022-08-18T23:22:39.700Z,12.35
2022-08-18T23:25:09.412Z,12.73
2022-08-18T23:27:36.895Z,11.85
2022-08-18T23:30:05.335Z,12.68
2022-08-18T23:32:33.574Z,12.70
2022-08-18T23:35:01.107Z,12.88
2022-08-18T23:37:28.125Z,12.30
2022-08-18T23:39:56.088Z,12.20
2022-08-18T23:42:25.107Z,13.50
2022-08-18T23:44:52.243Z,12.43
2022-08-18T23:47:21.163Z,12.45
2022-08-18T23:49:48.538Z,12.23
2022-08-18T23:52:15.869Z,12.52
2022-08-18T23:54:43.013Z,12.63
2022-08-18T23:57:10.235Z,12.00
2022-08-18T23:59:37.213Z,12.27
